Time;durP1;ratioP1;P1;durP2;ratioP2;P2;SDS_P1;SDS_P2;PMS_P1;PMS_P2;Temp;Humidity;BMP_temperature;BMP_pressure;BME280_temperature;BME280_humidity;BME280_pressure;Samples;Min_cycle;Max_cycle;Signal;HPM_P1;HPM_P2
2021/03/04 00:03:50;;;;;;;0.60;0.60;;;;;;;8.23;48.05;97527.81;299394;242;64009;-57
2021/03/04 00:08:54;;;;;;;0.60;0.60;;;;;;;8.14;48.64;97532.09;299395;233;63004;-57
2021/03/04 00:13:55;;;;;;;0.70;0.70;;;;;;;8.11;48.26;97527.22;299417;209;63009;-57
2021/03/04 00:18:55;;;;;;;0.60;0.60;;;;;;;8.03;48.33;97521.22;299395;238;63005;-57
2021/03/04 00:23:56;;;;;;;0.60;0.60;;;;;;;8.01;48.29;97523.34;299395;202;63008;-56
2021/03/04 00:28:57;;;;;;;0.60;0.60;;;;;;;7.98;48.73;97518.47;299395;213;63004;-57
2021/03/04 00:34:02;;;;;;;0.60;0.60;;;;;;;8.00;48.42;97516.31;299395;224;63009;-57
2021/03/04 00:39:07;;;;;;;0.60;0.60;;;;;;;8.11;47.82;97519.09;299417;218;63004;-57
2021/03/04 00:44:09;;;;;;;0.60;0.60;;;;;;;8.09;48.02;97511.25;299395;208;63009;-56
2021/03/04 00:49:10;;;;;;;0.60;0.60;;;;;;;8.04;48.26;97512.03;299395;224;63005;-56
2021/03/04 00:54:11;;;;;;;0.60;0.60;;;;;;;8.00;48.03;97510.09;299395;258;63008;-57
2021/03/04 00:59:11;;;;;;;0.60;0.60;;;;;;;7.91;48.92;97493.59;299395;225;63004;-56
2021/03/04 01:04:12;;;;;;;0.60;0.60;;;;;;;7.83;48.90;97498.66;299395;229;63009;-57
2021/03/04 01:09:13;;;;;;;0.60;0.60;;;;;;;7.77;49.56;97497.81;299395;234;63004;-57
2021/03/04 01:14:14;;;;;;;0.60;0.60;;;;;;;7.81;48.28;97487.31;299395;198;63009;-57
2021/03/04 01:19:15;;;;;;;0.70;0.70;;;;;;;7.76;48.94;97482.66;299395;212;63005;-57
2021/03/04 01:24:17;;;;;;;0.70;0.70;;;;;;;7.76;48.96;97482.66;299395;201;63008;-57
2021/03/04 01:29:17;;;;;;;0.60;0.60;;;;;;;7.68;49.54;97483.97;299395;235;63004;-56
2021/03/04 01:34:18;;;;;;;0.60;0.60;;;;;;;7.63;49.83;97477.72;299395;203;63009;-57
2021/03/04 01:39:19;;;;;;;0.60;0.60;;;;;;;7.63;49.78;97466.91;299395;287;63005;-56
2021/03/04 01:44:20;;;;;;;0.60;0.60;;;;;;;7.53;50.25;97461.47;299395;215;63009;-57
2021/03/04 01:49:21;;;;;;;0.60;0.60;;;;;;;7.52;50.33;97449.84;299395;265;63005;-57
2021/03/04 01:54:23;;;;;;;0.60;0.60;;;;;;;7.52;49.79;97454.44;299395;220;63009;-56
2021/03/04 01:59:24;;;;;;;0.60;0.60;;;;;;;7.58;49.49;97442.59;299395;237;63004;-57
2021/03/04 02:04:25;;;;;;;0.60;0.60;;;;;;;7.55;49.83;97438.53;299395;235;63016;-57
2021/03/04 02:09:26;;;;;;;0.70;0.70;;;;;;;7.55;49.76;97433.13;299395;197;63005;-56
2021/03/04 02:14:39;;;;;;;0.60;0.60;;;;;;;7.49;50.41;97433.34;299395;232;63009;-57
2021/03/04 02:20:35;;;;;;;0.60;0.60;;;;;;;7.42;50.40;97427.34;299395;203;63005;-57
2021/03/04 02:26:32;;;;;;;0.60;0.60;;;;;;;7.34;51.74;97429.44;299395;222;63009;-57
2021/03/04 02:31:36;;;;;;;0.60;0.60;;;;;;;7.25;51.68;97424.81;299417;221;63004;-56
2021/03/04 02:36:41;;;;;;;0.60;0.60;;;;;;;7.10;51.94;97414.69;299417;218;63009;-56
2021/03/04 02:41:43;;;;;;;0.70;0.70;;;;;;;7.10;51.44;97414.69;299395;203;63005;-57
2021/03/04 02:46:44;;;;;;;0.60;0.60;;;;;;;7.23;50.60;97399.97;299395;227;63009;-57
2021/03/04 02:51:47;;;;;;;0.60;0.60;;;;;;;7.35;49.81;97401.37;299395;213;63004;-57
2021/03/04 02:56:49;;;;;;;0.68;0.68;;;;;;;7.51;49.62;97394.22;299395;224;63020;-56
2021/03/04 03:01:50;;;;;;;0.60;0.60;;;;;;;7.65;48.56;97383.75;299395;215;63005;-56
2021/03/04 03:06:54;;;;;;;0.60;0.60;;;;;;;7.76;47.73;97371.09;299395;208;63009;-57
2021/03/04 03:11:55;;;;;;;0.60;0.60;;;;;;;7.75;49.28;97375.69;299395;199;63012;-56
2021/03/04 03:16:58;;;;;;;0.60;0.60;;;;;;;7.78;48.50;97375.16;299395;230;63009;-57
2021/03/04 03:22:00;;;;;;;0.60;0.60;;;;;;;7.71;48.42;97367.31;299395;204;63004;-57
2021/03/04 03:27:01;;;;;;;0.60;0.60;;;;;;;7.76;48.24;97360.31;299395;218;63009;-57
2021/03/04 03:32:03;;;;;;;0.60;0.60;;;;;;;7.70;48.26;97371.06;299395;290;63005;-56
2021/03/04 03:37:06;;;;;;;0.60;0.60;;;;;;;7.64;48.57;97363.19;299395;211;63009;-57
2021/03/04 03:42:08;;;;;;;0.60;0.60;;;;;;;7.55;48.60;97360.22;299395;246;63005;-57
2021/03/04 03:47:10;;;;;;;0.70;0.70;;;;;;;7.48;49.83;97365.03;299395;235;63009;-57
2021/03/04 03:52:12;;;;;;;0.60;0.60;;;;;;;7.49;49.76;97360.44;299395;241;63004;-57
2021/03/04 03:57:14;;;;;;;0.60;0.60;;;;;;;7.56;48.53;97358.31;299395;254;63009;-57
2021/03/04 04:02:15;;;;;;;0.60;0.60;;;;;;;7.60;48.39;97354.84;299394;215;64009;-56
2021/03/04 04:07:17;;;;;;;0.60;0.60;;;;;;;7.69;47.91;97347.03;299395;213;63009;-53
2021/03/04 04:12:20;;;;;;;0.60;0.60;;;;;;;7.59;48.51;97338.91;299395;202;63004;-53
2021/03/04 04:17:21;;;;;;;0.68;0.68;;;;;;;7.52;49.26;97335.63;299395;244;63009;-57
2021/03/04 04:22:22;;;;;;;0.60;0.60;;;;;;;7.49;49.10;97330.75;299395;245;63004;-56
2021/03/04 04:27:24;;;;;;;0.60;0.60;;;;;;;7.45;49.01;97335.03;299395;249;63009;-57
2021/03/04 04:32:25;;;;;;;0.60;0.60;;;;;;;7.28;49.74;97333.31;299395;243;63005;-57
2021/03/04 04:37:26;;;;;;;0.60;0.60;;;;;;;7.24;49.78;97340.31;299395;229;63008;-56
2021/03/04 04:42:27;;;;;;;0.60;0.60;;;;;;;7.20;49.71;97323.03;299395;274;63004;-54
2021/03/04 04:47:28;;;;;;;0.60;0.60;;;;;;;7.22;49.76;97320.06;299395;300;63012;-53
2021/03/04 04:52:29;;;;;;;0.60;0.60;;;;;;;7.29;48.94;97316.03;299395;391;63004;-54
2021/03/04 04:57:30;;;;;;;0.70;0.70;;;;;;;7.35;48.35;97304.19;299395;217;63009;-57
2021/03/04 05:02:31;;;;;;;0.60;0.60;;;;;;;7.28;48.62;97303.63;299395;224;63005;-56
2021/03/04 05:07:33;;;;;;;0.70;0.70;;;;;;;7.23;49.01;97300.91;299395;198;63009;-56
2021/03/04 05:12:34;;;;;;;0.60;0.60;;;;;;;7.21;49.18;97304.94;299395;223;63010;-56
2021/03/04 05:17:36;;;;;;;0.60;0.60;;;;;;;7.22;49.13;97298.47;299395;237;63009;-57
2021/03/04 05:22:39;;;;;;;0.60;0.60;;;;;;;7.27;48.54;97293.91;299395;265;63005;-57
2021/03/04 05:27:40;;;;;;;0.70;0.70;;;;;;;7.27;48.52;97285.81;299395;233;63009;-57
2021/03/04 05:32:41;;;;;;;0.60;0.60;;;;;;;7.31;48.50;97281.50;299394;202;64005;-57
2021/03/04 05:37:42;;;;;;;0.60;0.60;;;;;;;7.34;48.58;97280.16;299395;225;63009;-58
2021/03/04 05:42:43;;;;;;;0.60;0.60;;;;;;;7.27;49.01;97274.22;299395;234;63004;-57
2021/03/04 05:47:46;;;;;;;0.70;0.70;;;;;;;7.25;48.89;97270.97;299395;210;63009;-57
2021/03/04 05:52:50;;;;;;;0.70;0.70;;;;;;;7.29;48.65;97267.44;299395;228;63009;-57
2021/03/04 05:57:52;;;;;;;0.70;0.70;;;;;;;7.33;48.27;97271.25;299417;223;63009;-57
2021/03/04 06:02:54;;;;;;;0.60;0.60;;;;;;;7.36;48.13;97259.94;299371;207;64009;-57
2021/03/04 06:07:55;;;;;;;0.60;0.60;;;;;;;7.30;48.31;97260.16;299395;203;63009;-56
2021/03/04 06:12:56;;;;;;;0.60;0.60;;;;;;;7.26;48.76;97265.31;299395;214;63004;-57
2021/03/04 06:17:59;;;;;;;0.60;0.60;;;;;;;7.19;48.60;97262.03;299395;228;63009;-57
2021/03/04 06:23:01;;;;;;;0.60;0.60;;;;;;;7.16;49.30;97262.53;299395;327;63005;-57
2021/03/04 06:28:03;;;;;;;0.70;0.70;;;;;;;7.08;49.67;97257.63;299395;223;63009;-58
2021/03/04 06:33:08;;;;;;;0.60;0.60;;;;;;;7.15;49.42;97265.50;299395;267;63005;-57
2021/03/04 06:38:19;;;;;;;;;;;;;;;7.13;49.46;97263.06;299996;981;6005;-57
2021/03/04 06:43:27;;;;;;;0.60;0.60;;;;;;;7.17;49.32;97263.34;299400;215;63019;-58
2021/03/04 06:48:28;;;;;;;0.60;0.60;;;;;;;7.21;49.49;97259.88;299395;293;63005;-58
2021/03/04 06:53:31;;;;;;;0.60;0.60;;;;;;;7.25;49.16;97258.28;299395;209;63009;-54
2021/03/04 06:58:37;;;;;;;0.70;0.70;;;;;;;7.26;49.41;97257.22;299395;228;63004;-57
2021/03/04 07:03:46;;;;;;;0.70;0.70;;;;;;;7.27;49.58;97253.44;299395;240;63009;-57
2021/03/04 07:08:48;;;;;;;0.60;0.60;;;;;;;7.35;49.29;97261.00;299395;223;63005;-56
2021/03/04 07:13:50;;;;;;;0.60;0.60;;;;;;;7.61;48.28;97258.44;299395;243;63009;-56
2021/03/04 07:18:54;;;;;;;0.60;0.60;;;;;;;7.73;47.68;97250.88;299395;202;63004;-57
2021/03/04 07:23:55;;;;;;;0.70;0.70;;;;;;;7.86;47.69;97253.09;299395;232;63009;-57
2021/03/04 07:29:01;;;;;;;0.70;0.70;;;;;;;7.91;47.78;97241.50;299395;336;63005;-57
2021/03/04 07:34:02;;;;;;;0.60;0.60;;;;;;;7.99;47.73;97235.53;299395;219;63009;-56
2021/03/04 07:39:06;;;;;;;0.60;0.60;;;;;;;8.09;47.79;97243.69;299395;230;63005;-56
2021/03/04 07:44:08;;;;;;;0.60;0.60;;;;;;;8.08;48.16;97237.47;299395;197;63009;-56
2021/03/04 07:49:11;;;;;;;0.60;0.60;;;;;;;8.25;48.25;97233.72;299395;206;63004;-57
2021/03/04 07:54:13;;;;;;;0.60;0.60;;;;;;;8.54;47.44;97226.69;299395;225;63009;-56
2021/03/04 07:59:15;;;;;;;0.60;0.60;;;;;;;8.65;47.17;97211.28;299395;278;63005;-57
2021/03/04 08:04:23;;;;;;;0.60;0.60;;;;;;;8.84;46.92;97211.50;299395;214;63009;-58
2021/03/04 08:09:33;;;;;;;0.60;0.60;;;;;;;9.06;46.96;97210.09;299395;317;63005;-59
2021/03/04 08:14:34;;;;;;;0.60;0.60;;;;;;;9.32;46.91;97205.44;299395;220;63009;-57
2021/03/04 08:19:36;;;;;;;0.60;0.60;;;;;;;9.73;43.19;97191.66;299395;279;63004;-58
2021/03/04 08:24:38;;;;;;;0.60;0.60;;;;;;;9.75;43.21;97189.47;299395;267;63009;-57
2021/03/04 08:29:49;;;;;;;0.60;0.60;;;;;;;10.00;41.51;97181.19;299396;203;63005;-57
2021/03/04 08:34:50;;;;;;;0.60;0.60;;;;;;;9.90;41.89;97175.03;299396;214;63009;-57
2021/03/04 08:40:02;;;;;;;0.60;0.60;;;;;;;9.99;41.90;97167.94;299396;251;63000;-57
2021/03/04 08:45:04;;;;;;;0.60;0.60;;;;;;;10.26;40.78;97160.16;299396;260;63009;-57
2021/03/04 08:50:07;;;;;;;0.60;0.60;;;;;;;10.32;41.36;97160.91;299396;230;63004;-58
2021/03/04 08:55:09;;;;;;;0.50;0.50;;;;;;;10.54;39.54;97153.09;299396;225;63009;-58
2021/03/04 09:00:15;;;;;;;1.00;1.00;;;;;;;10.77;39.57;97150.69;299396;230;63005;-57
2021/03/04 09:05:24;;;;;;;0.60;0.60;;;;;;;10.37;40.64;97147.31;299396;245;63008;-58
2021/03/04 09:10:25;;;;;;;0.60;0.60;;;;;;;10.23;41.72;97140.91;299396;270;63004;-56
2021/03/04 09:15:27;;;;;;;0.60;0.60;;;;;;;10.31;41.24;97133.00;299397;213;63009;-57
2021/03/04 09:20:30;;;;;;;0.50;0.50;;;;;;;10.27;42.76;97131.12;299397;212;63004;-56
2021/03/04 09:25:32;;;;;;;0.60;0.60;;;;;;;10.63;41.65;97135.13;299396;247;63009;-56
2021/03/04 09:30:33;;;;;;;0.60;0.60;;;;;;;10.87;41.62;97128.88;299396;243;63005;-57
2021/03/04 09:35:37;;;;;;;0.60;0.60;;;;;;;10.96;41.26;97127.16;299396;209;63009;-57
2021/03/04 09:40:38;;;;;;;0.60;0.60;;;;;;;10.81;41.16;97119.19;299396;227;63004;-58
2021/03/04 09:45:47;;;;;;;0.88;0.88;;;;;;;10.68;43.48;97126.94;299396;238;63009;-57
2021/03/04 09:50:55;;;;;;;0.60;0.60;;;;;;;10.74;43.41;97119.53;299396;202;63005;-58
2021/03/04 09:55:56;;;;;;;0.60;0.60;;;;;;;11.00;42.42;97099.16;299396;202;63009;-57
2021/03/04 10:00:59;;;;;;;0.50;0.50;;;;;;;11.13;43.06;97102.22;299396;221;63005;-57
2021/03/04 10:06:01;;;;;;;0.60;0.60;;;;;;;11.24;41.69;97090.16;299397;270;63009;-57
2021/03/04 10:11:02;;;;;;;0.60;0.60;;;;;;;11.41;41.10;97091.28;299397;202;63004;-58
2021/03/04 10:16:14;;;;;;;0.50;0.50;;;;;;;11.66;41.88;97075.69;299395;262;63009;-57
2021/03/04 10:21:19;;;;;;;0.50;0.50;;;;;;;11.75;41.20;97079.38;299395;231;63005;-57
2021/03/04 10:26:20;;;;;;;0.60;0.60;;;;;;;11.76;42.68;97080.97;299395;210;63012;-57
2021/03/04 10:31:22;;;;;;;0.60;0.60;;;;;;;12.13;41.75;97068.47;299395;212;63011;-57
2021/03/04 10:36:23;;;;;;;0.50;0.50;;;;;;;12.49;41.20;97066.69;299395;209;63009;-57
2021/03/04 10:41:24;;;;;;;0.60;0.60;;;;;;;12.69;39.95;97060.88;299395;257;63004;-57
2021/03/04 10:46:28;;;;;;;0.50;0.50;;;;;;;12.71;40.20;97046.97;299395;224;63009;-55
2021/03/04 10:51:29;;;;;;;0.52;0.52;;;;;;;12.73;40.63;97053.72;299417;220;63005;-56
2021/03/04 10:56:30;;;;;;;0.60;0.60;;;;;;;12.62;41.00;97055.00;299395;204;63009;-56
2021/03/04 11:01:35;;;;;;;0.52;0.52;;;;;;;12.52;40.96;97049.75;299395;210;63000;-55
2021/03/04 11:06:36;;;;;;;0.60;0.60;;;;;;;12.61;41.55;97049.88;299416;214;64013;-56
2021/03/04 11:11:39;;;;;;;0.50;0.50;;;;;;;12.83;41.60;97044.50;299395;221;63004;-56
2021/03/04 11:16:40;;;;;;;1.50;1.45;;;;;;;13.09;39.73;97036.63;299395;252;63022;-57
2021/03/04 11:21:43;;;;;;;0.60;0.60;;;;;;;13.09;39.80;97029.28;299395;202;63005;-56
2021/03/04 11:26:43;;;;;;;0.60;0.60;;;;;;;13.07;40.86;97023.31;299395;215;63008;-56
2021/03/04 11:31:46;;;;;;;0.50;0.50;;;;;;;13.19;39.91;97009.19;299395;226;63004;-56
2021/03/04 11:36:47;;;;;;;0.50;0.50;;;;;;;13.38;39.20;97000.88;299395;221;63019;-55
2021/03/04 11:41:48;;;;;;;0.70;0.70;;;;;;;13.31;39.14;97001.28;299395;259;63004;-55
2021/03/04 11:46:49;;;;;;;0.50;0.50;;;;;;;13.03;40.91;96999.72;299395;211;63009;-56
2021/03/04 11:51:50;;;;;;;0.50;0.50;;;;;;;12.96;40.94;96991.97;299395;216;63005;-56
2021/03/04 11:56:51;;;;;;;0.90;0.90;;;;;;;13.03;40.70;96986.09;299395;223;63008;-55
2021/03/04 12:01:53;;;;;;;0.50;0.50;;;;;;;13.02;41.03;96965.41;299395;263;63004;-56
2021/03/04 12:06:55;;;;;;;0.50;0.50;;;;;;;13.04;41.05;96958.56;299395;263;63022;-57
2021/03/04 12:11:57;;;;;;;0.50;0.50;;;;;;;13.34;39.78;96954.34;299395;278;63004;-56
2021/03/04 12:16:58;;;;;;;0.50;0.50;;;;;;;13.41;39.36;96946.56;299395;251;63018;-58
2021/03/04 12:22:02;;;;;;;0.50;0.50;;;;;;;13.20;39.55;96937.22;299395;245;63005;-56
2021/03/04 12:27:04;;;;;;;0.50;0.50;;;;;;;13.26;40.56;96943.38;299417;244;63005;-57
2021/03/04 12:32:06;;;;;;;0.50;0.50;;;;;;;13.44;39.88;96928.78;299395;235;63004;-58
2021/03/04 12:37:09;;;;;;;0.50;0.50;;;;;;;13.63;38.69;96915.75;299395;255;63028;-57
2021/03/04 12:42:11;;;;;;;0.60;0.60;;;;;;;13.41;38.51;96913.84;299395;220;63010;-57
2021/03/04 12:47:12;;;;;;;0.50;0.50;;;;;;;13.36;38.78;96905.78;299395;273;63009;-57
2021/03/04 12:52:13;;;;;;;0.50;0.50;;;;;;;13.56;38.43;96909.09;299395;255;63005;-55
2021/03/04 12:57:14;;;;;;;0.50;0.50;;;;;;;13.61;38.56;96900.81;299395;210;63009;-56
2021/03/04 13:02:16;;;;;;;0.57;0.57;;;;;;;13.48;39.41;96896.25;299395;254;63004;-58
2021/03/04 13:07:17;;;;;;;0.70;0.70;;;;;;;13.62;36.90;96886.06;299395;215;63009;-55
2021/03/04 13:12:23;;;;;;;2.28;2.25;;;;;;;13.57;38.78;96884.25;299395;246;63005;-55
2021/03/04 13:17:25;;;;;;;0.50;0.50;;;;;;;13.49;38.91;96884.25;299395;233;63009;-54
2021/03/04 13:22:26;;;;;;;0.50;0.50;;;;;;;13.50;39.09;96877.66;299395;222;63005;-55
2021/03/04 13:27:28;;;;;;;0.50;0.50;;;;;;;13.63;38.61;96880.28;299395;203;63009;-56
2021/03/04 13:32:30;;;;;;;0.50;0.50;;;;;;;13.60;37.70;96866.47;299395;228;63004;-55
2021/03/04 13:37:32;;;;;;;0.50;0.50;;;;;;;13.37;38.32;96866.53;299395;202;63009;-53
2021/03/04 13:42:33;;;;;;;0.50;0.50;;;;;;;13.22;39.24;96866.88;299395;243;63005;-55
2021/03/04 13:47:35;;;;;;;0.50;0.50;;;;;;;13.01;39.48;96865.75;299395;215;63009;-55
2021/03/04 13:52:37;;;;;;;0.50;0.50;;;;;;;13.08;39.47;96860.69;299395;298;63005;-56
2021/03/04 13:57:43;;;;;;;0.50;0.50;;;;;;;12.82;40.07;96867.84;299395;250;63009;-54
2021/03/04 14:02:45;;;;;;;0.50;0.50;;;;;;;12.75;40.21;96863.63;299395;202;63004;-56
2021/03/04 14:07:46;;;;;;;0.50;0.50;;;;;;;12.80;39.00;96856.47;299395;218;63009;-56
2021/03/04 14:12:47;;;;;;;0.50;0.50;;;;;;;12.65;39.30;96861.13;299395;207;63005;-56
2021/03/04 14:17:48;;;;;;;0.80;0.80;;;;;;;12.56;40.07;96871.13;299395;244;63008;-58
2021/03/04 14:22:49;;;;;;;0.60;0.60;;;;;;;12.35;40.70;96867.25;299395;222;63004;-55
2021/03/04 14:27:50;;;;;;;0.60;0.60;;;;;;;12.51;40.62;96863.06;299395;217;63009;-58
2021/03/04 14:32:52;;;;;;;0.50;0.50;;;;;;;12.35;40.23;96848.19;299395;215;63004;-57
2021/03/04 14:37:53;;;;;;;0.50;0.50;;;;;;;12.36;41.22;96860.69;299395;251;63009;-53
2021/03/04 14:42:54;;;;;;;0.60;0.60;;;;;;;12.30;40.66;96845.59;299395;295;63005;-54
2021/03/04 14:47:55;;;;;;;0.60;0.60;;;;;;;12.27;40.25;96835.31;299395;253;63008;-54
2021/03/04 14:52:56;;;;;;;0.50;0.50;;;;;;;12.19;40.29;96836.03;299395;344;63004;-55
2021/03/04 14:57:57;;;;;;;0.60;0.60;;;;;;;12.04;41.45;96846.13;299395;216;63009;-55
2021/03/04 15:02:59;;;;;;;0.50;0.50;;;;;;;12.22;38.47;96827.25;299395;220;63004;-54
2021/03/04 15:08:00;;;;;;;0.60;0.60;;;;;;;11.98;38.91;96827.50;299395;199;63009;-55
2021/03/04 15:13:01;;;;;;;0.50;0.50;;;;;;;12.00;38.63;96826.09;299395;232;63005;-56
2021/03/04 15:18:02;;;;;;;0.60;0.60;;;;;;;12.05;38.89;96830.63;299395;206;63008;-56
2021/03/04 15:23:04;;;;;;;0.50;0.50;;;;;;;11.94;39.17;96827.28;299395;251;63004;-56
2021/03/04 15:28:07;;;;;;;0.80;0.80;;;;;;;12.17;38.72;96819.19;299395;234;63009;-59
2021/03/04 15:33:08;;;;;;;0.70;0.70;;;;;;;12.44;38.32;96811.00;299395;235;63005;-57
2021/03/04 15:38:09;;;;;;;0.50;0.50;;;;;;;12.43;38.00;96801.22;299395;196;63009;-54
2021/03/04 15:43:10;;;;;;;0.60;0.60;;;;;;;12.47;38.24;96796.78;299395;218;63005;-57
2021/03/04 15:48:13;;;;;;;0.50;0.50;;;;;;;12.20;38.83;96796.81;299395;253;63009;-55
2021/03/04 15:53:15;;;;;;;0.50;0.50;;;;;;;11.98;39.28;96792.94;299395;317;63004;-57
2021/03/04 15:58:16;;;;;;;0.55;0.55;;;;;;;11.64;40.17;96795.25;299395;213;63009;-56
2021/03/04 16:03:18;;;;;;;0.50;0.50;;;;;;;11.62;41.04;96794.75;299395;234;63005;-55
2021/03/04 16:08:20;;;;;;;0.60;0.60;;;;;;;11.37;41.86;96802.28;299395;197;63009;-56
2021/03/04 16:13:22;;;;;;;0.50;0.50;;;;;;;11.22;43.01;96796.31;299395;203;63005;-54
2021/03/04 16:18:25;;;;;;;0.60;0.60;;;;;;;11.26;44.00;96800.03;299395;252;63009;-56
2021/03/04 16:23:26;;;;;;;0.60;0.60;;;;;;;11.36;43.28;96789.00;299395;230;63004;-57
2021/03/04 16:28:27;;;;;;;0.60;0.60;;;;;;;11.31;43.51;96792.59;299395;234;63009;-55
2021/03/04 16:33:28;;;;;;;0.60;0.60;;;;;;;11.34;43.90;96797.44;299395;202;63005;-54
2021/03/04 16:38:30;;;;;;;0.50;0.50;;;;;;;10.98;44.93;96793.75;299395;213;63009;-55
2021/03/04 16:43:32;;;;;;;0.60;0.60;;;;;;;10.79;46.26;96801.09;299394;202;64009;-55
2021/03/04 16:48:34;;;;;;;0.60;0.60;;;;;;;10.61;46.62;96800.84;299395;255;63009;-55
2021/03/04 16:53:35;;;;;;;0.60;0.60;;;;;;;10.41;47.18;96801.94;299395;233;63004;-55
2021/03/04 16:58:36;;;;;;;0.60;0.60;;;;;;;10.34;47.57;96800.72;299395;210;63009;-55
2021/03/04 17:03:38;;;;;;;0.60;0.60;;;;;;;10.27;47.95;96803.00;299395;216;63005;-57
2021/03/04 17:08:42;;;;;;;0.60;0.60;;;;;;;10.17;48.27;96800.37;299395;212;63009;-56
2021/03/04 17:13:43;;;;;;;0.70;0.70;;;;;;;10.13;48.32;96785.78;299417;256;63005;-56
2021/03/04 17:18:44;;;;;;;0.60;0.60;;;;;;;10.17;48.03;96805.81;299373;202;63009;-56
2021/03/04 17:23:45;;;;;;;0.60;0.60;;;;;;;10.15;48.21;96797.97;299395;225;63004;-57
2021/03/04 17:28:46;;;;;;;0.60;0.60;;;;;;;10.08;48.21;96789.38;299395;212;63009;-57
2021/03/04 17:33:47;;;;;;;0.70;0.70;;;;;;;10.04;49.08;96788.38;299394;203;64005;-56
2021/03/04 17:38:48;;;;;;;0.60;0.60;;;;;;;10.02;49.04;96798.69;299395;196;63008;-55
2021/03/04 17:43:49;;;;;;;0.60;0.60;;;;;;;9.92;49.03;96791.50;299395;202;63004;-56
2021/03/04 17:48:51;;;;;;;0.55;0.55;;;;;;;10.06;48.47;96795.09;299395;259;63009;-56
2021/03/04 17:53:57;;;;;;;0.50;0.50;;;;;;;9.97;49.20;96804.19;299395;230;63009;-56
2021/03/04 17:59:01;;;;;;;0.60;0.60;;;;;;;10.01;48.66;96797.88;299395;198;63009;-57
2021/03/04 18:04:02;;;;;;;0.60;0.60;;;;;;;10.11;48.28;96796.94;299395;243;63005;-57
2021/03/04 18:09:04;;;;;;;0.60;0.60;;;;;;;9.95;48.97;96807.19;299395;229;63008;-56
2021/03/04 18:14:07;;;;;;;0.60;0.60;;;;;;;9.96;48.94;96803.38;299395;227;63004;-56
2021/03/04 18:19:08;;;;;;;0.60;0.60;;;;;;;9.83;49.32;96801.34;299395;208;63009;-55
2021/03/04 18:24:11;;;;;;;0.60;0.60;;;;;;;9.84;49.70;96791.31;299394;230;64008;-59
2021/03/04 18:29:11;;;;;;;0.60;0.60;;;;;;;9.71;49.84;96776.56;299395;215;63009;-57
2021/03/04 18:34:13;;;;;;;0.60;0.60;;;;;;;9.62;50.43;96767.50;299395;239;63005;-58
2021/03/04 18:39:14;;;;;;;0.60;0.60;;;;;;;9.73;50.74;96771.66;299395;215;63009;-58
2021/03/04 18:44:15;;;;;;;0.60;0.60;;;;;;;9.65;50.75;96791.31;299395;229;63004;-57
2021/03/04 18:49:16;;;;;;;0.60;0.60;;;;;;;9.63;51.42;96791.59;299395;206;63009;-56
2021/03/04 18:54:18;;;;;;;0.60;0.60;;;;;;;9.47;52.58;96797.44;299395;234;63005;-55
2021/03/04 18:59:19;;;;;;;2.05;1.95;;;;;;;9.65;52.14;96796.72;299395;225;63009;-57
2021/03/04 19:04:20;;;;;;;0.60;0.60;;;;;;;9.71;52.88;96815.31;299395;274;63005;-59
2021/03/04 19:09:23;;;;;;;0.60;0.60;;;;;;;9.49;56.07;96844.00;299395;215;63009;-53
2021/03/04 19:14:24;;;;;;;1.27;1.17;;;;;;;9.05;61.38;96844.97;299395;216;63004;-58
2021/03/04 19:19:25;;;;;;;1.17;1.17;;;;;;;8.55;64.08;96825.34;299395;203;63009;-57
2021/03/04 19:24:26;;;;;;;0.60;0.60;;;;;;;8.26;65.86;96827.94;299395;221;63005;-56
2021/03/04 19:29:27;;;;;;;0.82;0.82;;;;;;;8.24;66.58;96840.94;299395;319;63009;-56
2021/03/04 19:34:28;;;;;;;0.70;0.70;;;;;;;8.07;67.25;96845.87;299395;208;63005;-58
2021/03/04 19:39:29;;;;;;;0.60;0.60;;;;;;;8.16;65.65;96843.41;299395;211;63009;-57
2021/03/04 19:44:31;;;;;;;0.70;0.70;;;;;;;7.79;66.95;96839.25;299395;205;63004;-58
2021/03/04 19:49:34;;;;;;;0.65;0.65;;;;;;;7.85;65.99;96842.75;299395;239;63009;-56
2021/03/04 19:54:35;;;;;;;1.02;1.02;;;;;;;7.77;66.31;96836.00;299395;220;63005;-57
2021/03/04 19:59:38;;;;;;;0.60;0.60;;;;;;;7.59;66.24;96844.72;299395;257;63009;-57
2021/03/04 20:04:38;;;;;;;0.70;0.70;;;;;;;7.54;66.39;96845.53;299395;203;63005;-57
2021/03/04 20:09:42;;;;;;;0.70;0.70;;;;;;;7.65;65.73;96835.50;299395;222;63009;-58
2021/03/04 20:14:43;;;;;;;0.63;0.63;;;;;;;7.18;68.03;96850.22;299417;202;63004;-58
2021/03/04 20:19:44;;;;;;;0.62;0.62;;;;;;;7.35;66.99;96856.09;299395;246;63009;-57
2021/03/04 20:24:45;;;;;;;0.60;0.60;;;;;;;7.55;66.16;96857.16;299395;203;63009;-56
2021/03/04 20:29:46;;;;;;;1.00;1.00;;;;;;;7.39;67.05;96859.88;299395;285;63009;-57
2021/03/04 20:34:48;;;;;;;0.60;0.60;;;;;;;7.34;67.27;96854.47;299395;308;63005;-56
2021/03/04 20:39:49;;;;;;;0.60;0.60;;;;;;;7.22;67.60;96856.69;299395;251;63027;-57
2021/03/04 20:44:50;;;;;;;0.60;0.60;;;;;;;7.32;67.86;96863.94;299395;224;63004;-57
2021/03/04 20:49:51;;;;;;;0.70;0.70;;;;;;;7.43;67.73;96864.72;299395;210;63009;-57
2021/03/04 20:54:55;;;;;;;0.60;0.60;;;;;;;7.44;68.01;96864.47;299395;334;63005;-55
2021/03/04 20:59:56;;;;;;;0.70;0.70;;;;;;;7.17;69.50;96869.37;299417;272;63009;-56
2021/03/04 21:04:57;;;;;;;0.70;0.70;;;;;;;7.10;69.91;96868.84;299396;295;63005;-56
2021/03/04 21:09:58;;;;;;;0.60;0.60;;;;;;;7.14;70.13;96880.69;299396;229;63019;-56
2021/03/04 21:14:59;;;;;;;0.70;0.70;;;;;;;7.12;70.41;96878.28;299396;218;63008;-56
2021/03/04 21:20:00;;;;;;;0.70;0.70;;;;;;;7.06;70.40;96873.94;299396;197;63009;-55
2021/03/04 21:25:02;;;;;;;0.60;0.60;;;;;;;7.11;70.31;96882.06;299396;197;63010;-54
2021/03/04 21:30:06;;;;;;;0.60;0.60;;;;;;;7.00;71.13;96883.13;299396;196;63008;-58
2021/03/04 21:35:08;;;;;;;0.60;0.60;;;;;;;7.16;70.73;96879.34;299378;218;125004;-57
2021/03/04 21:40:10;;;;;;;0.73;0.73;;;;;;;7.13;71.53;96885.28;299396;341;63020;-57
2021/03/04 21:45:12;;;;;;;0.68;0.68;;;;;;;7.06;72.10;96879.34;299397;259;63004;-57
2021/03/04 21:50:15;;;;;;;0.70;0.70;;;;;;;6.72;75.10;96879.88;299397;229;63009;-57
2021/03/04 21:55:17;;;;;;;0.62;0.62;;;;;;;6.78;73.98;96878.00;299397;233;63005;-56
2021/03/04 22:00:19;;;;;;;0.80;0.80;;;;;;;6.62;74.79;96874.47;299396;359;63017;-57
2021/03/04 22:05:22;;;;;;;0.60;0.60;;;;;;;6.51;75.00;96883.63;299396;238;63004;-57
2021/03/04 22:10:24;;;;;;;0.70;0.70;;;;;;;6.35;75.48;96879.28;299396;304;63009;-57
2021/03/04 22:15:25;;;;;;;0.60;0.60;;;;;;;6.30;75.46;96892.72;299396;297;63004;-56
2021/03/04 22:20:28;;;;;;;0.70;0.70;;;;;;;6.45;74.94;96890.09;299396;270;63009;-56
2021/03/04 22:25:29;;;;;;;1.10;1.08;;;;;;;6.63;74.15;96876.09;299396;336;63005;-58
2021/03/04 22:30:30;;;;;;;0.70;0.70;;;;;;;6.60;73.79;96873.94;299396;216;63008;-56
2021/03/04 22:35:32;;;;;;;0.60;0.60;;;;;;;6.52;73.80;96870.97;299396;236;63004;-57
2021/03/04 22:40:33;;;;;;;0.60;0.60;;;;;;;6.41;74.62;96872.84;299396;213;63009;-57
2021/03/04 22:45:34;;;;;;;0.70;0.70;;;;;;;6.53;74.34;96880.69;299397;360;63004;-58
2021/03/04 22:50:36;;;;;;;0.70;0.70;;;;;;;6.48;74.42;96884.16;299395;227;63009;-57
2021/03/04 22:55:37;;;;;;;0.70;0.70;;;;;;;6.53;74.08;96881.50;299395;342;63011;-58
2021/03/04 23:00:40;;;;;;;0.60;0.60;;;;;;;6.34;75.37;96891.94;299395;256;63009;-57
2021/03/04 23:05:41;;;;;;;1.40;1.40;;;;;;;6.62;74.35;96879.88;299395;227;63004;-57
2021/03/04 23:10:44;;;;;;;0.60;0.60;;;;;;;6.49;75.05;96883.09;299395;215;63009;-57
2021/03/04 23:15:45;;;;;;;0.60;0.60;;;;;;;6.47;74.78;96887.94;299395;287;63005;-57
2021/03/04 23:20:46;;;;;;;0.60;0.60;;;;;;;6.49;74.85;96879.59;299395;285;63009;-57
2021/03/04 23:25:49;;;;;;;0.98;0.98;;;;;;;6.55;75.19;96890.13;299395;226;63005;-59
2021/03/04 23:30:50;;;;;;;0.60;0.60;;;;;;;6.52;75.34;96879.88;299395;299;63009;-57
2021/03/04 23:35:51;;;;;;;0.60;0.60;;;;;;;6.39;76.13;96891.16;299395;319;63004;-57
2021/03/04 23:40:52;;;;;;;0.60;0.60;;;;;;;6.59;75.05;96891.19;299395;275;63009;-57
2021/03/04 23:45:53;;;;;;;0.60;0.60;;;;;;;6.47;75.72;96885.25;299395;332;63005;-57
2021/03/04 23:50:55;;;;;;;1.33;1.33;;;;;;;6.52;75.46;96887.94;299395;271;63019;-57
2021/03/04 23:55:56;;;;;;;0.60;0.60;;;;;;;6.52;75.96;96887.94;299395;205;63005;-57
